createdAt,value
2022-09-12T00:01:14.613Z,4.55
2022-09-12T00:03:42.181Z,9.82
2022-09-12T00:06:18.151Z,7.68
2022-09-12T00:08:51.974Z,9.97
2022-09-12T00:11:18.625Z,6.38
2022-09-12T00:13:45.612Z,6.20
2022-09-12T00:16:24.591Z,6.78
2022-09-12T00:18:54.687Z,5.88
2022-09-12T00:21:22.957Z,6.30
2022-09-12T00:23:52.402Z,5.57
2022-09-12T00:26:22.155Z,3.80
2022-09-12T00:28:52.029Z,4.22
2022-09-12T00:31:27.280Z,4.47
2022-09-12T00:33:57.110Z,6.67
2022-09-12T00:36:28.058Z,3.92
2022-09-12T00:38:54.924Z,5.22
2022-09-12T00:41:27.377Z,4.53
2022-09-12T00:43:58.606Z,3.47
2022-09-12T00:46:43.278Z,5.07
2022-09-12T00:49:27.393Z,4.90
2022-09-12T00:52:23.869Z,5.10
2022-09-12T00:55:19.626Z,5.72
2022-09-12T00:58:03.873Z,6.18
2022-09-12T01:00:30.578Z,6.80
2022-09-12T01:03:04.025Z,5.35
2022-09-12T01:05:34.094Z,5.35
2022-09-12T01:08:05.473Z,5.40
2022-09-12T01:10:38.611Z,5.63
2022-09-12T01:13:07.274Z,6.07
2022-09-12T01:15:34.865Z,5.93
2022-09-12T01:18:04.511Z,6.80
2022-09-12T01:20:53.362Z,5.53
2022-09-12T01:23:57.382Z,7.90
2022-09-12T01:26:42.310Z,10.97
2022-09-12T01:29:30.610Z,8.02
2022-09-12T01:32:06.369Z,5.75
2022-09-12T01:35:06.933Z,6.90
2022-09-12T01:37:41.843Z,8.50
2022-09-12T01:40:41.790Z,7.67
2022-09-12T01:43:28.787Z,7.25
2022-09-12T01:46:02.195Z,10.07
2022-09-12T01:48:38.178Z,8.93
2022-09-12T01:51:11.796Z,5.60
2022-09-12T01:54:16.813Z,5.97
2022-09-12T01:56:46.697Z,5.88
2022-09-12T01:59:29.731Z,6.68
2022-09-12T02:02:00.949Z,5.95
2022-09-12T02:04:34.391Z,5.43
2022-09-12T02:07:27.611Z,5.30
2022-09-12T02:10:17.275Z,7.43
2022-09-12T02:12:53.253Z,9.02
2022-09-12T02:15:24.345Z,5.20
2022-09-12T02:17:58.913Z,6.35
2022-09-12T02:20:47.900Z,4.63
2022-09-12T02:23:20.932Z,6.15
2022-09-12T02:25:51.489Z,4.88
2022-09-12T02:28:27.134Z,5.97
2022-09-12T02:31:26.922Z,4.03
2022-09-12T02:34:28.825Z,4.23
2022-09-12T02:37:07.926Z,5.22
2022-09-12T02:39:37.224Z,5.47
2022-09-12T02:42:06.506Z,4.80
2022-09-12T02:44:38.090Z,4.75
2022-09-12T02:47:28.399Z,5.77
2022-09-12T02:49:56.952Z,5.07
2022-09-12T02:52:26.795Z,5.53
2022-09-12T02:54:55.183Z,4.75
2022-09-12T02:57:23.249Z,7.03
2022-09-12T02:59:53.836Z,4.50
2022-09-12T03:02:35.665Z,5.35
2022-09-12T03:05:21.474Z,5.32
2022-09-12T03:08:00.255Z,6.15
2022-09-12T03:10:51.418Z,5.18
2022-09-12T03:13:49.761Z,4.67
2022-09-12T03:16:16.325Z,5.95
2022-09-12T03:18:58.115Z,4.85
2022-09-12T03:21:37.985Z,6.75
2022-09-12T03:24:11.603Z,4.72
2022-09-12T03:26:40.858Z,4.63
2022-09-12T03:29:08.395Z,4.90
2022-09-12T03:31:37.386Z,6.30
2022-09-12T03:34:04.029Z,4.68
2022-09-12T03:36:33.520Z,4.20
2022-09-12T03:39:02.483Z,4.40
2022-09-12T03:41:33.822Z,3.55
2022-09-12T03:44:00.384Z,5.13
2022-09-12T03:46:26.976Z,6.47
2022-09-12T03:48:55.656Z,5.22
2022-09-12T03:51:24.897Z,4.70
2022-09-12T03:53:51.848Z,10.13
2022-09-12T03:56:19.410Z,6.68
2022-09-12T03:58:48.274Z,4.13
2022-09-12T04:01:17.508Z,5.93
2022-09-12T04:03:46.498Z,4.10
2022-09-12T04:06:15.503Z,4.72
2022-09-12T04:08:45.885Z,5.65
2022-09-12T04:11:21.446Z,4.45
2022-09-12T04:13:52.878Z,4.05
2022-09-12T04:16:20.230Z,5.37
2022-09-12T04:18:46.903Z,5.60
2022-09-12T04:21:18.265Z,4.93
2022-09-12T04:23:47.443Z,5.32
2022-09-12T04:26:22.025Z,5.95
2022-09-12T04:28:48.716Z,4.30
2022-09-12T04:31:22.596Z,9.68
2022-09-12T04:34:01.178Z,5.47
2022-09-12T04:36:34.416Z,5.18
2022-09-12T04:39:02.500Z,7.10
2022-09-12T04:41:34.156Z,5.33
2022-09-12T04:44:05.512Z,4.82
2022-09-12T04:46:35.604Z,5.30
2022-09-12T04:49:05.684Z,4.97
2022-09-12T04:51:35.916Z,5.85
2022-09-12T04:54:08.506Z,4.67
2022-09-12T04:56:41.656Z,5.22
2022-09-12T04:59:09.171Z,4.47
2022-09-12T05:01:38.016Z,5.18
2022-09-12T05:04:04.818Z,4.53
2022-09-12T05:06:34.551Z,5.37
2022-09-12T05:09:08.500Z,6.53
2022-09-12T05:12:02.573Z,4.78
2022-09-12T05:14:24.518Z,3.63
2022-09-12T05:16:51.139Z,5.57
2022-09-12T05:19:17.776Z,6.10
2022-09-12T05:21:44.442Z,4.63
2022-09-12T05:24:11.609Z,4.82
2022-09-12T05:26:38.433Z,6.20
2022-09-12T05:29:07.801Z,6.30
2022-09-12T05:31:35.006Z,5.37
2022-09-12T05:34:05.915Z,5.47
2022-09-12T05:36:33.108Z,4.95
2022-09-12T05:39:03.798Z,7.15
2022-09-12T05:41:34.401Z,5.20
2022-09-12T05:44:07.717Z,6.47
2022-09-12T05:46:40.007Z,5.05
2022-09-12T05:49:11.121Z,4.93
2022-09-12T05:51:42.542Z,5.35
2022-09-12T05:54:13.841Z,3.67
2022-09-12T05:56:42.800Z,4.00
2022-09-12T05:59:21.229Z,5.43
2022-09-12T06:01:48.659Z,4.80
2022-09-12T06:04:16.117Z,4.60
2022-09-12T06:06:48.845Z,6.00
2022-09-12T06:09:16.907Z,6.93
2022-09-12T06:11:45.189Z,5.78
2022-09-12T06:14:14.024Z,7.88
2022-09-12T06:16:40.889Z,6.07
2022-09-12T06:19:19.117Z,5.18
2022-09-12T06:21:47.612Z,5.90
2022-09-12T06:24:16.816Z,6.00
2022-09-12T06:26:43.866Z,6.55
2022-09-12T06:29:11.673Z,5.57
2022-09-12T06:31:41.845Z,5.63
2022-09-12T06:34:11.536Z,5.83
2022-09-12T06:36:41.095Z,6.10
2022-09-12T06:39:11.432Z,7.07
2022-09-12T06:41:43.527Z,6.43
2022-09-12T06:44:17.879Z,5.78
2022-09-12T06:46:45.276Z,7.50
2022-09-12T06:49:12.420Z,5.97
2022-09-12T06:51:44.914Z,7.57
2022-09-12T06:54:17.831Z,6.38
2022-09-12T06:56:46.770Z,5.65
2022-09-12T06:59:13.608Z,7.20
2022-09-12T07:01:45.562Z,6.43
2022-09-12T07:04:12.142Z,8.02
2022-09-12T07:06:44.892Z,7.70
2022-09-12T07:09:14.160Z,9.40
2022-09-12T07:11:42.364Z,6.20
2022-09-12T07:14:12.276Z,7.07
2022-09-12T07:16:38.872Z,8.98
2022-09-12T07:19:08.081Z,6.45
2022-09-12T07:21:39.987Z,8.05
2022-09-12T07:24:10.634Z,7.03
2022-09-12T07:26:41.105Z,8.43
2022-09-12T07:29:35.483Z,6.57
2022-09-12T07:32:02.554Z,8.20
2022-09-12T07:34:29.139Z,8.40
2022-09-12T07:36:58.688Z,7.37
2022-09-12T07:39:25.477Z,7.70
2022-09-12T07:41:54.743Z,7.05
2022-09-12T07:44:22.084Z,6.82
2022-09-12T07:46:53.157Z,7.95
2022-09-12T07:49:22.455Z,7.20
2022-09-12T07:51:51.301Z,7.15
2022-09-12T07:54:18.744Z,6.38
2022-09-12T07:56:45.923Z,8.38
2022-09-12T07:59:25.356Z,7.35
2022-09-12T08:02:01.424Z,7.17
2022-09-12T08:04:27.932Z,7.53
2022-09-12T08:06:56.788Z,8.57
2022-09-12T08:09:23.723Z,7.07
2022-09-12T08:11:50.236Z,8.43
2022-09-12T08:14:18.157Z,9.73
2022-09-12T08:16:44.703Z,7.47
2022-09-12T08:19:12.052Z,7.60
2022-09-12T08:21:43.147Z,6.72
2022-09-12T08:24:12.381Z,7.38
2022-09-12T08:26:41.412Z,7.70
2022-09-12T08:29:13.165Z,8.90
2022-09-12T08:31:41.734Z,9.55
2022-09-12T08:34:10.475Z,8.20
2022-09-12T08:36:39.801Z,8.82
2022-09-12T08:39:07.579Z,7.70
2022-09-12T08:42:04.997Z,7.35
2022-09-12T08:44:43.680Z,9.05
2022-09-12T08:47:25.782Z,7.63
2022-09-12T08:50:10.870Z,6.32
2022-09-12T08:53:03.419Z,7.07
2022-09-12T08:55:35.619Z,6.85
2022-09-12T08:58:18.506Z,7.70
2022-09-12T09:01:10.018Z,7.43
2022-09-12T09:04:20.598Z,7.45
2022-09-12T09:07:05.208Z,7.40
2022-09-12T09:09:53.682Z,6.20
2022-09-12T09:12:45.123Z,6.00
2022-09-12T09:15:22.252Z,8.00
2022-09-12T09:17:54.118Z,6.28
2022-09-12T09:20:23.693Z,7.37
2022-09-12T09:22:57.086Z,6.90
2022-09-12T09:25:36.726Z,7.28
2022-09-12T09:28:14.426Z,4.97
2022-09-12T09:30:43.548Z,5.43
2022-09-12T09:33:24.206Z,4.80
2022-09-12T09:36:18.679Z,4.82
2022-09-12T09:38:49.782Z,4.93
2022-09-12T09:41:42.303Z,4.85
2022-09-12T09:44:09.008Z,4.95
2022-09-12T09:46:38.774Z,6.70
2022-09-12T09:49:09.546Z,3.90
2022-09-12T09:51:41.940Z,5.03
2022-09-12T09:54:21.247Z,4.07
2022-09-12T09:56:50.420Z,5.82
2022-09-12T09:59:30.144Z,3.63
2022-09-12T10:02:05.938Z,4.47
2022-09-12T10:04:43.275Z,2.95
2022-09-12T10:07:19.896Z,3.88
2022-09-12T10:10:18.126Z,5.50
2022-09-12T10:12:47.748Z,7.10
2022-09-12T10:15:22.786Z,6.28
2022-09-12T10:17:50.761Z,5.13
2022-09-12T10:20:40.025Z,4.35
2022-09-12T10:23:18.797Z,3.67
2022-09-12T10:25:56.979Z,3.70
2022-09-12T10:28:34.344Z,5.18
2022-09-12T10:31:06.166Z,4.47
2022-09-12T10:33:42.123Z,5.32
2022-09-12T10:36:11.396Z,4.88
2022-09-12T10:38:59.203Z,3.70
2022-09-12T10:41:27.956Z,5.75
2022-09-12T10:44:09.892Z,4.32
2022-09-12T10:46:36.797Z,4.07
2022-09-12T10:49:13.617Z,3.90
2022-09-12T10:51:43.162Z,4.67
2022-09-12T10:54:13.241Z,6.82
2022-09-12T10:56:57.553Z,6.40
2022-09-12T10:59:39.087Z,6.45
2022-09-12T11:02:25.608Z,5.28
2022-09-12T11:05:11.063Z,4.70
2022-09-12T11:07:40.584Z,4.22
2022-09-12T11:10:18.884Z,4.13
2022-09-12T11:13:06.099Z,4.70
2022-09-12T11:15:38.600Z,4.68
2022-09-12T11:18:23.677Z,3.97
2022-09-12T11:21:15.034Z,4.28
2022-09-12T11:24:12.581Z,4.53
2022-09-12T11:27:05.682Z,3.95
2022-09-12T11:29:47.250Z,5.85
2022-09-12T11:32:16.967Z,4.27
2022-09-12T11:35:17.970Z,5.93
2022-09-12T11:37:46.812Z,4.72
2022-09-12T11:40:20.595Z,5.13
2022-09-12T11:42:51.948Z,5.10
2022-09-12T11:45:57.120Z,2.93
2022-09-12T11:48:38.547Z,4.03
2022-09-12T11:51:16.122Z,5.00
2022-09-12T11:53:49.980Z,4.00
2022-09-12T11:56:22.319Z,4.90
2022-09-12T11:59:03.210Z,4.27
2022-09-12T12:01:44.970Z,3.92
2022-09-12T12:04:24.958Z,4.57
2022-09-12T12:07:03.323Z,4.32
2022-09-12T12:09:31.367Z,4.88
2022-09-12T12:12:01.207Z,4.57
2022-09-12T12:14:38.823Z,5.57
2022-09-12T12:17:13.995Z,3.97
2022-09-12T12:19:41.949Z,5.25
2022-09-12T12:22:17.083Z,4.53
2022-09-12T12:25:05.163Z,3.77
2022-09-12T12:27:49.094Z,5.68
2022-09-12T12:30:30.875Z,4.30
2022-09-12T12:33:18.223Z,4.15
2022-09-12T12:36:02.449Z,3.92
2022-09-12T12:38:39.154Z,4.23
2022-09-12T12:41:17.987Z,4.40
2022-09-12T12:43:48.375Z,3.67
2022-09-12T12:46:19.320Z,3.42
2022-09-12T12:48:58.232Z,4.68
2022-09-12T12:51:36.192Z,4.67
2022-09-12T12:54:11.087Z,3.88
2022-09-12T12:56:42.560Z,3.40
2022-09-12T12:59:25.822Z,3.85
2022-09-12T13:02:01.053Z,4.22
2022-09-12T13:04:32.898Z,5.67
2022-09-12T13:06:59.486Z,3.55
2022-09-12T13:09:29.986Z,2.70
2022-09-12T13:12:09.257Z,5.15
2022-09-12T13:14:55.345Z,3.97
2022-09-12T13:17:30.510Z,3.37
2022-09-12T13:20:29.668Z,4.60
2022-09-12T13:22:57.122Z,3.13
2022-09-12T13:25:23.970Z,3.45
2022-09-12T13:28:07.678Z,3.88
2022-09-12T13:30:39.440Z,4.00
2022-09-12T13:33:18.472Z,2.97
2022-09-12T13:36:03.846Z,3.65
2022-09-12T13:38:55.146Z,2.75
2022-09-12T13:41:46.468Z,5.40
2022-09-12T13:44:21.755Z,3.70
2022-09-12T13:46:54.075Z,2.70
2022-09-12T13:49:26.874Z,3.13
2022-09-12T13:52:06.878Z,2.33
2022-09-12T13:54:37.930Z,3.03
2022-09-12T13:57:05.506Z,2.90
2022-09-12T13:59:45.311Z,2.78
2022-09-12T14:02:21.010Z,2.70
2022-09-12T14:05:11.969Z,2.55
2022-09-12T14:07:44.806Z,4.18
2022-09-12T14:10:21.053Z,4.70
2022-09-12T14:12:50.882Z,2.92
2022-09-12T14:15:25.653Z,4.20
2022-09-12T14:18:01.461Z,2.33
2022-09-12T14:20:36.288Z,3.88
2022-09-12T14:23:19.032Z,2.67
2022-09-12T14:25:49.843Z,2.30
2022-09-12T14:28:23.183Z,3.95
2022-09-12T14:31:05.217Z,2.42
2022-09-12T14:33:49.237Z,2.03
2022-09-12T14:36:33.818Z,2.47
2022-09-12T14:39:07.352Z,2.38
2022-09-12T14:41:41.091Z,2.40
2022-09-12T14:44:16.786Z,2.70
2022-09-12T14:46:44.709Z,2.35
2022-09-12T14:49:19.865Z,2.53
2022-09-12T14:51:52.295Z,2.67
2022-09-12T14:54:27.686Z,3.05
2022-09-12T14:57:00.890Z,2.50
2022-09-12T14:59:30.318Z,3.80
2022-09-12T15:02:21.910Z,2.23
2022-09-12T15:05:03.707Z,3.25
2022-09-12T15:07:42.697Z,2.55
2022-09-12T15:10:18.825Z,2.53
2022-09-12T15:12:48.183Z,2.25
2022-09-12T15:15:23.215Z,2.27
2022-09-12T15:17:49.791Z,2.72
2022-09-12T15:20:16.805Z,3.08
2022-09-12T15:22:45.965Z,3.97
2022-09-12T15:25:18.074Z,2.28
2022-09-12T15:27:47.474Z,2.83
2022-09-12T15:30:14.085Z,1.92
2022-09-12T15:32:46.219Z,3.33
2022-09-12T15:35:17.994Z,2.38
2022-09-12T15:37:49.254Z,2.15
2022-09-12T15:40:16.253Z,2.13
2022-09-12T15:42:47.462Z,2.78
2022-09-12T15:45:21.889Z,3.05
2022-09-12T15:47:50.980Z,3.70
2022-09-12T15:50:19.626Z,2.00
2022-09-12T15:52:46.800Z,4.90
2022-09-12T15:55:23.028Z,2.97
2022-09-12T15:57:50.645Z,2.72
2022-09-12T16:00:18.479Z,2.80
2022-09-12T16:02:54.468Z,2.95
2022-09-12T16:05:24.357Z,3.37
2022-09-12T16:07:57.644Z,3.00
2022-09-12T16:10:30.139Z,6.85
2022-09-12T16:12:57.624Z,4.28
2022-09-12T16:15:27.397Z,2.88
2022-09-12T16:17:58.712Z,3.03
2022-09-12T16:20:25.364Z,3.55
2022-09-12T16:22:52.053Z,4.00
2022-09-12T16:25:18.733Z,2.47
2022-09-12T16:27:47.825Z,5.22
2022-09-12T16:30:14.523Z,4.47
2022-09-12T16:32:46.645Z,4.40
2022-09-12T16:35:13.201Z,3.75
2022-09-12T16:37:39.776Z,2.58
2022-09-12T16:40:07.466Z,3.25
2022-09-12T16:42:34.139Z,1.90
2022-09-12T16:45:05.457Z,3.22
2022-09-12T16:47:32.948Z,4.50
2022-09-12T16:49:59.669Z,2.85
2022-09-12T16:52:28.774Z,1.67
2022-09-12T16:54:55.429Z,3.63
2022-09-12T16:57:23.425Z,2.78
2022-09-12T16:59:52.247Z,3.00
2022-09-12T17:02:18.856Z,2.90
2022-09-12T17:04:45.428Z,2.80
2022-09-12T17:07:16.558Z,3.40
2022-09-12T17:09:47.364Z,4.00
2022-09-12T17:12:16.883Z,1.83
2022-09-12T17:14:43.458Z,2.10
2022-09-12T17:17:10.192Z,2.38
2022-09-12T17:19:37.086Z,2.80
2022-09-12T17:22:03.714Z,2.55
2022-09-12T17:24:33.049Z,2.03
2022-09-12T17:26:59.761Z,3.05
2022-09-12T17:29:26.638Z,3.42
2022-09-12T17:31:55.010Z,3.00
2022-09-12T17:34:21.599Z,2.75
2022-09-12T17:36:48.534Z,2.58
2022-09-12T17:39:17.601Z,4.93
2022-09-12T17:41:46.010Z,4.40
2022-09-12T17:44:14.979Z,4.30
2022-09-12T17:46:42.381Z,4.22
2022-09-12T17:49:15.471Z,4.60
2022-09-12T17:51:43.835Z,2.67
2022-09-12T17:54:17.944Z,3.33
2022-09-12T17:56:46.662Z,4.13
2022-09-12T17:59:18.985Z,2.72
2022-09-12T18:02:04.282Z,3.40
2022-09-12T18:04:33.793Z,4.40
2022-09-12T18:07:02.575Z,2.85
2022-09-12T18:09:30.671Z,2.33
2022-09-12T18:11:57.476Z,7.18
2022-09-12T18:14:24.916Z,2.13
2022-09-12T18:16:54.098Z,5.95
2022-09-12T18:19:20.785Z,3.00
2022-09-12T18:21:52.078Z,3.63
2022-09-12T18:24:18.633Z,3.80
2022-09-12T18:26:45.382Z,5.10
2022-09-12T18:29:13.239Z,3.30
2022-09-12T18:31:42.741Z,3.75
2022-09-12T18:34:13.707Z,2.77
2022-09-12T18:36:42.263Z,3.38
2022-09-12T18:39:09.454Z,3.78
2022-09-12T18:41:39.164Z,3.88
2022-09-12T18:44:06.734Z,3.33
2022-09-12T18:46:37.421Z,3.67
2022-09-12T18:49:09.481Z,4.28
2022-09-12T18:51:41.780Z,2.90
2022-09-12T18:54:13.178Z,3.70
2022-09-12T18:56:43.492Z,3.65
2022-09-12T18:59:12.859Z,3.57
2022-09-12T19:01:42.243Z,2.67
2022-09-12T19:04:11.213Z,3.47
2022-09-12T19:06:42.082Z,3.22
2022-09-12T19:09:10.425Z,3.25
2022-09-12T19:11:39.442Z,2.90
2022-09-12T19:14:09.619Z,3.58
2022-09-12T19:16:36.789Z,4.43
2022-09-12T19:19:06.180Z,3.58
2022-09-12T19:21:34.370Z,3.53
2022-09-12T19:24:04.226Z,3.33
2022-09-12T19:26:33.873Z,3.03
2022-09-12T19:29:03.035Z,3.85
2022-09-12T19:31:31.004Z,3.17
2022-09-12T19:34:05.670Z,5.78
2022-09-12T19:36:47.871Z,2.47
2022-09-12T19:39:16.492Z,3.78
2022-09-12T19:41:43.723Z,3.38
2022-09-12T19:44:11.491Z,4.55
2022-09-12T19:46:40.488Z,4.43
2022-09-12T19:49:07.496Z,4.57
2022-09-12T19:51:36.959Z,4.97
2022-09-12T19:54:04.089Z,2.67
2022-09-12T19:56:32.957Z,6.53
2022-09-12T19:58:59.626Z,4.57
2022-09-12T20:01:31.529Z,4.50
2022-09-12T20:04:00.770Z,3.90
2022-09-12T20:06:29.627Z,4.88
2022-09-12T20:08:59.419Z,4.72
2022-09-12T20:11:26.040Z,5.68
2022-09-12T20:13:53.396Z,5.03
2022-09-12T20:16:29.352Z,2.83
2022-09-12T20:19:02.332Z,3.22
2022-09-12T20:21:31.940Z,4.78
2022-09-12T20:24:11.916Z,4.10
2022-09-12T20:26:38.982Z,5.07
2022-09-12T20:29:06.776Z,3.72
2022-09-12T20:31:36.811Z,4.72
2022-09-12T20:34:04.889Z,4.57
2022-09-12T20:36:34.626Z,4.78
2022-09-12T20:39:02.542Z,4.50
2022-09-12T20:41:34.458Z,3.63
2022-09-12T20:44:01.277Z,4.93
2022-09-12T20:46:28.907Z,3.67
2022-09-12T20:48:58.786Z,3.40
2022-09-12T20:51:30.375Z,5.07
2022-09-12T20:54:04.672Z,5.97
2022-09-12T20:56:39.265Z,5.22
2022-09-12T20:59:05.871Z,6.07
2022-09-12T21:01:33.013Z,5.90
2022-09-12T21:04:02.139Z,6.57
2022-09-12T21:06:29.055Z,6.70
2022-09-12T21:08:59.878Z,5.85
2022-09-12T21:11:29.284Z,5.95
2022-09-12T21:13:58.051Z,4.45
2022-09-12T21:16:26.930Z,4.03
2022-09-12T21:18:59.749Z,4.38
2022-09-12T21:21:27.023Z,5.28
2022-09-12T21:23:57.174Z,3.92
2022-09-12T21:26:26.747Z,8.43
2022-09-12T21:28:53.269Z,4.20
2022-09-12T21:31:24.718Z,4.93
2022-09-12T21:33:56.313Z,4.72
2022-09-12T21:36:24.424Z,4.20
2022-09-12T21:38:50.969Z,4.68
2022-09-12T21:41:18.428Z,3.93
2022-09-12T21:43:47.601Z,3.92
2022-09-12T21:46:14.310Z,5.63
2022-09-12T21:48:46.175Z,4.75
2022-09-12T21:51:12.695Z,4.20
2022-09-12T21:53:39.266Z,3.77
2022-09-12T21:56:08.678Z,6.07
2022-09-12T21:58:36.323Z,3.17
2022-09-12T22:01:03.572Z,3.95
2022-09-12T22:03:32.516Z,4.80
2022-09-12T22:06:04.840Z,3.80
2022-09-12T22:08:33.564Z,4.50
2022-09-12T22:11:07.951Z,4.45
2022-09-12T22:13:35.366Z,4.35
2022-09-12T22:16:03.318Z,4.20
2022-09-12T22:18:35.266Z,4.03
2022-09-12T22:21:12.807Z,6.22
2022-09-12T22:23:58.300Z,5.05
2022-09-12T22:26:27.923Z,4.50
2022-09-12T22:28:54.670Z,5.10
2022-09-12T22:31:23.657Z,6.37
2022-09-12T22:33:54.916Z,4.47
2022-09-12T22:36:21.434Z,4.40
2022-09-12T22:38:48.054Z,5.80
2022-09-12T22:41:19.354Z,4.97
2022-09-12T22:43:46.040Z,3.70
2022-09-12T22:46:14.909Z,7.85
2022-09-12T22:48:43.935Z,5.25
2022-09-12T22:51:11.000Z,4.07
2022-09-12T22:53:37.641Z,4.32
2022-09-12T22:56:05.597Z,3.73
2022-09-12T22:58:33.808Z,4.60
2022-09-12T23:01:00.481Z,3.47
2022-09-12T23:03:27.530Z,4.07
2022-09-12T23:05:54.162Z,4.65
2022-09-12T23:08:20.753Z,3.30
2022-09-12T23:10:47.376Z,4.28
2022-09-12T23:13:14.135Z,5.95
2022-09-12T23:15:43.042Z,4.65
2022-09-12T23:18:09.685Z,3.78
2022-09-12T23:20:36.212Z,4.10
2022-09-12T23:23:02.894Z,3.80
2022-09-12T23:25:32.002Z,4.80
2022-09-12T23:27:58.696Z,3.85
2022-09-12T23:30:28.170Z,3.65
2022-09-12T23:32:58.029Z,5.20
2022-09-12T23:35:27.179Z,3.88
2022-09-12T23:37:53.675Z,4.47
2022-09-12T23:40:20.285Z,3.75
2022-09-12T23:42:49.229Z,4.20
2022-09-12T23:45:15.800Z,4.53
2022-09-12T23:47:44.955Z,4.43
2022-09-12T23:50:13.641Z,4.95
2022-09-12T23:52:40.124Z,5.38
2022-09-12T23:55:07.392Z,4.18
2022-09-12T23:57:33.946Z,4.77
